Time;durP1;ratioP1;P1;durP2;ratioP2;P2;SDS_P1;SDS_P2;PMS_P1;PMS_P2;Temp;Humidity;BMP_temperature;BMP_pressure;BME280_temperature;BME280_humidity;BME280_pressure;Samples;Min_cycle;Max_cycle;Signal;HPM_P1;HPM_P2
2023/03/09 00:00:39;;;;;;;7.90;6.60;;;;;;;;;;6245127;28;20187;-61
2023/03/09 00:03:40;;;;;;;10.50;6.67;;;;;;;;;;6224762;28;20709;-59
2023/03/09 00:06:42;;;;;;;13.07;7.13;;;;;;;;;;6232056;28;20190;-59
2023/03/09 00:09:43;;;;;;;10.57;7.13;;;;;;;;;;6240110;28;20241;-60
2023/03/09 00:12:44;;;;;;;10.23;6.50;;;;;;;;;;6238443;28;20198;-61
2023/03/09 00:15:49;;;;;;;6.80;5.60;;;;;;;;;;6224094;28;20203;-60
2023/03/09 00:18:53;;;;;;;8.13;5.77;;;;;;;;;;6247031;28;20273;-60
2023/03/09 00:21:55;;;;;;;9.37;5.90;;;;;;;;;;6228224;28;20187;-60
2023/03/09 00:24:56;;;;;;;7.63;5.80;;;;;;;;;;6236260;28;20190;-62
2023/03/09 00:27:57;;;;;;;7.33;5.47;;;;;;;;;;6226628;28;20194;-62
2023/03/09 00:31:02;;;;;;;8.47;6.03;;;;;;;;;;6227080;28;20189;-62
2023/03/09 00:34:04;;;;;;;7.83;5.10;;;;;;;;;;6247813;28;20191;-62
2023/03/09 00:37:05;;;;;;;7.20;5.50;;;;;;;;;;6240077;28;20246;-62
2023/03/09 00:40:09;;;;;;;6.63;5.03;;;;;;;;;;6238217;28;20282;-62
2023/03/09 00:43:10;;;;;;;11.80;5.90;;;;;;;;;;6241481;28;20204;-62
2023/03/09 00:46:12;;;;;;;6.80;5.80;;;;;;;;;;6233392;28;20223;-62
2023/03/09 00:49:13;;;;;;;6.93;5.70;;;;;;;;;;6230089;28;20788;-62
2023/03/09 00:52:14;;;;;;;6.63;4.90;;;;;;;;;;6242654;28;20201;-63
2023/03/09 00:55:16;;;;;;;8.80;5.17;;;;;;;;;;6244370;28;20190;-63
2023/03/09 00:58:17;;;;;;;7.60;5.10;;;;;;;;;;6230899;28;20264;-63
2023/03/09 01:01:18;;;;;;;9.97;5.67;;;;;;;;;;6245609;28;20201;-60
2023/03/09 01:04:19;;;;;;;6.27;5.33;;;;;;;;;;6246673;28;20189;-60
2023/03/09 01:07:22;;;;;;;7.77;5.60;;;;;;;;;;6228041;28;20680;-60
2023/03/09 01:10:23;;;;;;;5.77;5.00;;;;;;;;;;6229145;28;20284;-59
2023/03/09 01:13:24;;;;;;;6.43;5.53;;;;;;;;;;6217772;28;20252;-60
2023/03/09 01:16:25;;;;;;;5.63;4.77;;;;;;;;;;6228117;28;20289;-59
2023/03/09 01:19:27;;;;;;;6.83;4.80;;;;;;;;;;6221691;28;20198;-60
2023/03/09 01:22:28;;;;;;;6.63;4.73;;;;;;;;;;6240703;28;20195;-59
2023/03/09 01:25:29;;;;;;;6.47;5.00;;;;;;;;;;6224319;28;20191;-59
2023/03/09 01:28:30;;;;;;;6.87;5.30;;;;;;;;;;6233030;28;20295;-60
2023/03/09 01:31:31;;;;;;;7.37;5.50;;;;;;;;;;6231029;28;20225;-60
2023/03/09 01:34:32;;;;;;;7.30;5.20;;;;;;;;;;6244971;28;20242;-59
2023/03/09 01:37:33;;;;;;;5.57;5.03;;;;;;;;;;6235104;28;20218;-60
2023/03/09 01:40:34;;;;;;;11.50;5.30;;;;;;;;;;6250994;28;20217;-60
2023/03/09 01:43:39;;;;;;;6.17;5.30;;;;;;;;;;6251838;28;20191;-60
2023/03/09 01:46:46;;;;;;;5.90;5.23;;;;;;;;;;6243841;28;20226;-62
2023/03/09 01:49:49;;;;;;;6.40;4.87;;;;;;;;;;6248611;28;20186;-62
2023/03/09 01:52:52;;;;;;;6.20;5.33;;;;;;;;;;6250873;28;20209;-62
2023/03/09 01:55:53;;;;;;;7.23;5.33;;;;;;;;;;6247651;28;20190;-62
2023/03/09 01:58:55;;;;;;;7.27;5.00;;;;;;;;;;6244714;28;20196;-62
2023/03/09 02:01:56;;;;;;;7.17;5.00;;;;;;;;;;6250617;28;20205;-62
2023/03/09 02:05:00;;;;;;;5.60;5.00;;;;;;;;;;6244570;28;20277;-62
2023/03/09 02:08:01;;;;;;;7.90;5.70;;;;;;;;;;6258760;28;20229;-62
2023/03/09 02:11:04;;;;;;;7.80;5.53;;;;;;;;;;6227128;28;20191;-62
2023/03/09 02:14:05;;;;;;;6.93;5.30;;;;;;;;;;6234487;28;20202;-62
2023/03/09 02:17:06;;;;;;;7.13;5.30;;;;;;;;;;6243010;28;20215;-61
2023/03/09 02:20:10;;;;;;;7.30;5.40;;;;;;;;;;6245171;28;20191;-61
2023/03/09 02:23:17;;;;;;;8.37;5.77;;;;;;;;;;6246959;28;20198;-59
2023/03/09 02:26:40;;;;;;;8.63;5.77;;;;;;;;;;6247230;28;20188;-62
2023/03/09 02:29:42;;;;;;;6.37;5.10;;;;;;;;;;6241229;28;20211;-62
2023/03/09 02:32:43;;;;;;;8.50;5.67;;;;;;;;;;6240330;28;20244;-63
2023/03/09 02:35:44;;;;;;;5.67;5.07;;;;;;;;;;6251350;28;20265;-63
2023/03/09 02:38:45;;;;;;;6.43;5.77;;;;;;;;;;6230476;28;20297;-63
2023/03/09 02:41:46;;;;;;;6.07;5.47;;;;;;;;;;6230616;28;20199;-63
2023/03/09 02:44:47;;;;;;;8.00;5.57;;;;;;;;;;6227990;28;20725;-63
2023/03/09 02:47:48;;;;;;;10.83;5.70;;;;;;;;;;6234008;28;20261;-60
2023/03/09 02:50:49;;;;;;;9.63;5.60;;;;;;;;;;6251055;28;20209;-60
2023/03/09 02:53:50;;;;;;;5.90;5.30;;;;;;;;;;6236276;28;20202;-60
2023/03/09 02:56:51;;;;;;;10.17;4.87;;;;;;;;;;6232553;28;20353;-60
2023/03/09 02:59:53;;;;;;;6.53;5.10;;;;;;;;;;6221326;28;20281;-61
2023/03/09 03:02:54;;;;;;;8.70;6.20;;;;;;;;;;6234474;28;20244;-62
2023/03/09 03:05:55;;;;;;;6.00;5.03;;;;;;;;;;6250617;28;20193;-62
2023/03/09 03:08:56;;;;;;;9.07;5.00;;;;;;;;;;6229930;28;20236;-62
2023/03/09 03:11:57;;;;;;;5.50;4.73;;;;;;;;;;6226584;28;20197;-60
2023/03/09 03:14:58;;;;;;;6.23;4.83;;;;;;;;;;6248705;28;20182;-60
2023/03/09 03:17:59;;;;;;;7.60;5.13;;;;;;;;;;6236683;28;20277;-60
2023/03/09 03:21:00;;;;;;;5.47;4.77;;;;;;;;;;6231432;28;20654;-60
2023/03/09 03:24:01;;;;;;;6.67;5.20;;;;;;;;;;6228722;28;20244;-60
2023/03/09 03:27:03;;;;;;;6.73;4.80;;;;;;;;;;6230143;28;20217;-60
2023/03/09 03:30:04;;;;;;;7.07;4.83;;;;;;;;;;6235307;28;20198;-62
2023/03/09 03:33:05;;;;;;;5.83;5.07;;;;;;;;;;6230664;28;20191;-62
2023/03/09 03:36:06;;;;;;;8.03;5.20;;;;;;;;;;6248237;28;20242;-62
2023/03/09 03:39:08;;;;;;;6.30;4.53;;;;;;;;;;6219081;28;20194;-62
2023/03/09 03:42:09;;;;;;;8.13;4.70;;;;;;;;;;6242537;28;20187;-62
2023/03/09 03:45:11;;;;;;;7.23;5.17;;;;;;;;;;6241602;28;20195;-62
2023/03/09 03:48:12;;;;;;;5.40;4.83;;;;;;;;;;6224069;28;20199;-62
2023/03/09 03:51:13;;;;;;;6.73;5.23;;;;;;;;;;6244396;28;20193;-63
2023/03/09 03:54:14;;;;;;;7.57;5.47;;;;;;;;;;6247592;28;20194;-63
2023/03/09 03:57:15;;;;;;;6.77;5.10;;;;;;;;;;6241932;28;20267;-63
2023/03/09 04:00:19;;;;;;;6.13;5.10;;;;;;;;;;6258835;28;20296;-63
2023/03/09 04:03:20;;;;;;;5.77;4.97;;;;;;;;;;6249782;28;20201;-63
2023/03/09 04:06:21;;;;;;;7.90;5.83;;;;;;;;;;6232187;28;20292;-63
2023/03/09 04:09:22;;;;;;;7.00;5.83;;;;;;;;;;6228177;28;20194;-61
2023/03/09 04:12:23;;;;;;;7.97;5.30;;;;;;;;;;6242599;28;20194;-61
2023/03/09 04:15:24;;;;;;;7.40;5.10;;;;;;;;;;6225072;28;20197;-61
2023/03/09 04:18:25;;;;;;;6.63;5.33;;;;;;;;;;6231965;28;20218;-61
2023/03/09 04:21:26;;;;;;;6.43;5.13;;;;;;;;;;6249082;28;20182;-61
2023/03/09 04:24:27;;;;;;;7.40;5.53;;;;;;;;;;6221954;28;20234;-61
2023/03/09 04:27:28;;;;;;;7.37;5.87;;;;;;;;;;6212801;28;20198;-61
2023/03/09 04:30:30;;;;;;;7.40;5.87;;;;;;;;;;6227682;28;20201;-61
2023/03/09 04:33:31;;;;;;;7.57;5.23;;;;;;;;;;6236508;28;20199;-61
2023/03/09 04:36:33;;;;;;;7.73;5.33;;;;;;;;;;6228040;28;20235;-61
2023/03/09 04:39:34;;;;;;;8.83;5.47;;;;;;;;;;6252116;28;20194;-61
2023/03/09 04:42:35;;;;;;;7.73;5.23;;;;;;;;;;6243886;28;20215;-61
2023/03/09 04:45:36;;;;;;;6.67;5.50;;;;;;;;;;6232108;28;20195;-61
2023/03/09 04:48:37;;;;;;;7.40;5.20;;;;;;;;;;6239131;28;20191;-60
2023/03/09 04:51:38;;;;;;;7.70;5.90;;;;;;;;;;6218860;28;20201;-59
2023/03/09 04:54:39;;;;;;;9.13;5.53;;;;;;;;;;6234339;28;20217;-58
2023/03/09 04:57:40;;;;;;;9.13;5.80;;;;;;;;;;6217558;28;20217;-56
2023/03/09 05:00:41;;;;;;;8.13;5.43;;;;;;;;;;6219503;28;20192;-59
2023/03/09 05:03:42;;;;;;;6.13;5.47;;;;;;;;;;6240184;28;20273;-59
2023/03/09 05:06:44;;;;;;;8.20;5.50;;;;;;;;;;6238779;28;20202;-58
2023/03/09 05:09:45;;;;;;;9.90;6.67;;;;;;;;;;6250402;28;20186;-58
2023/03/09 05:12:46;;;;;;;9.77;6.83;;;;;;;;;;6245479;28;20241;-57
2023/03/09 05:15:47;;;;;;;6.37;5.30;;;;;;;;;;6244481;28;20197;-57
2023/03/09 05:18:49;;;;;;;10.13;6.37;;;;;;;;;;6229329;28;20225;-57
2023/03/09 05:21:50;;;;;;;8.20;6.28;;;;;;;;;;6241073;28;20734;-58
2023/03/09 05:24:51;;;;;;;9.67;5.93;;;;;;;;;;6244836;28;20200;-58
2023/03/09 05:27:52;;;;;;;8.03;5.73;;;;;;;;;;6243447;28;20204;-59
2023/03/09 05:30:54;;;;;;;7.83;6.07;;;;;;;;;;6252098;28;20255;-58
2023/03/09 05:33:55;;;;;;;9.13;5.67;;;;;;;;;;6245667;28;20197;-59
2023/03/09 05:36:56;;;;;;;7.70;6.30;;;;;;;;;;6228672;28;20218;-61
2023/03/09 05:39:57;;;;;;;7.17;5.97;;;;;;;;;;6232219;28;20194;-60
2023/03/09 05:42:58;;;;;;;7.63;5.90;;;;;;;;;;6227589;28;20198;-59
2023/03/09 05:45:59;;;;;;;6.40;5.63;;;;;;;;;;6234916;28;20197;-60
2023/03/09 05:49:00;;;;;;;8.67;5.73;;;;;;;;;;6225993;28;20190;-60
2023/03/09 05:52:01;;;;;;;6.23;5.43;;;;;;;;;;6223990;28;20463;-58
2023/03/09 05:55:02;;;;;;;6.90;5.27;;;;;;;;;;6246715;28;20294;-59
2023/03/09 05:58:03;;;;;;;10.00;6.43;;;;;;;;;;6251095;28;20214;-60
2023/03/09 06:01:04;;;;;;;10.40;7.00;;;;;;;;;;6233866;28;20202;-58
2023/03/09 06:04:05;;;;;;;9.63;6.27;;;;;;;;;;6230576;28;20185;-58
2023/03/09 06:07:07;;;;;;;8.53;6.60;;;;;;;;;;6224583;28;20198;-59
2023/03/09 06:10:08;;;;;;;8.17;5.80;;;;;;;;;;6251083;28;20187;-57
2023/03/09 06:13:09;;;;;;;10.73;7.33;;;;;;;;;;6229938;28;20189;-56
2023/03/09 06:16:13;;;;;;;10.77;7.57;;;;;;;;;;6245519;28;20675;-58
2023/03/09 06:19:14;;;;;;;9.27;6.23;;;;;;;;;;6254480;28;20184;-57
2023/03/09 06:22:15;;;;;;;9.07;6.67;;;;;;;;;;6240481;28;20278;-57
2023/03/09 06:25:16;;;;;;;7.23;6.50;;;;;;;;;;6232679;28;20193;-58
2023/03/09 06:28:17;;;;;;;13.07;7.23;;;;;;;;;;6233250;28;20202;-55
2023/03/09 06:31:19;;;;;;;9.77;7.10;;;;;;;;;;6236188;28;20209;-59
2023/03/09 06:34:20;;;;;;;8.33;6.90;;;;;;;;;;6238528;28;20230;-59
2023/03/09 06:37:21;;;;;;;9.23;7.53;;;;;;;;;;6235303;28;20214;-59
2023/03/09 06:40:22;;;;;;;7.00;6.30;;;;;;;;;;6228193;28;20228;-57
2023/03/09 06:43:23;;;;;;;9.43;7.03;;;;;;;;;;6230792;28;20190;-57
2023/03/09 06:46:25;;;;;;;10.13;6.70;;;;;;;;;;6241668;28;20195;-57
2023/03/09 06:49:26;;;;;;;8.60;6.80;;;;;;;;;;6242186;28;20226;-59
2023/03/09 06:52:27;;;;;;;8.90;6.83;;;;;;;;;;6222662;28;20199;-58
2023/03/09 06:55:28;;;;;;;8.63;6.40;;;;;;;;;;6219923;28;20245;-59
2023/03/09 06:58:30;;;;;;;9.13;5.97;;;;;;;;;;6209978;28;20246;-58
2023/03/09 07:01:33;;;;;;;8.80;6.70;;;;;;;;;;6241608;28;20253;-59
2023/03/09 07:04:34;;;;;;;10.23;6.50;;;;;;;;;;6230436;28;20285;-58
2023/03/09 07:07:35;;;;;;;10.23;6.80;;;;;;;;;;6223633;28;20199;-57
2023/03/09 07:10:37;;;;;;;8.23;6.30;;;;;;;;;;6241702;28;20212;-58
2023/03/09 07:13:38;;;;;;;9.50;6.37;;;;;;;;;;6240979;28;20201;-58
2023/03/09 07:16:39;;;;;;;9.10;6.93;;;;;;;;;;6231269;28;20226;-60
2023/03/09 07:19:40;;;;;;;8.33;6.13;;;;;;;;;;6237327;28;20200;-59
2023/03/09 07:22:42;;;;;;;6.23;5.43;;;;;;;;;;6242106;28;20190;-59
2023/03/09 07:25:43;;;;;;;7.97;5.67;;;;;;;;;;6223937;28;20205;-58
2023/03/09 07:28:44;;;;;;;8.43;6.23;;;;;;;;;;6246257;28;20197;-59
2023/03/09 07:31:45;;;;;;;8.87;6.03;;;;;;;;;;6229991;28;20220;-58
2023/03/09 07:34:46;;;;;;;11.80;7.07;;;;;;;;;;6240072;28;20237;-57
2023/03/09 07:37:47;;;;;;;8.20;6.07;;;;;;;;;;6225688;28;20222;-58
2023/03/09 07:40:48;;;;;;;11.63;7.87;;;;;;;;;;6229259;28;20190;-59
2023/03/09 07:43:49;;;;;;;10.40;7.17;;;;;;;;;;6216963;28;20194;-58
2023/03/09 07:46:50;;;;;;;10.90;6.63;;;;;;;;;;6223364;28;20213;-59
2023/03/09 07:49:51;;;;;;;11.47;7.93;;;;;;;;;;6243459;28;20245;-58
2023/03/09 07:52:54;;;;;;;11.77;7.03;;;;;;;;;;6211762;28;20201;-59
2023/03/09 07:55:56;;;;;;;12.77;8.53;;;;;;;;;;6236913;28;20257;-59
2023/03/09 07:58:57;;;;;;;10.53;7.60;;;;;;;;;;6244594;28;20218;-59
2023/03/09 08:01:58;;;;;;;10.73;6.80;;;;;;;;;;6222789;28;20225;-59
2023/03/09 08:04:59;;;;;;;6.57;5.30;;;;;;;;;;6230554;28;20193;-59
2023/03/09 08:08:00;;;;;;;8.67;5.10;;;;;;;;;;6246667;28;20281;-59
2023/03/09 08:11:01;;;;;;;5.60;4.37;;;;;;;;;;6223334;28;20205;-59
2023/03/09 08:14:02;;;;;;;2.93;2.57;;;;;;;;;;6222616;28;20199;-59
2023/03/09 08:17:03;;;;;;;5.47;2.83;;;;;;;;;;6218329;28;20217;-59
2023/03/09 08:20:08;;;;;;;3.57;2.80;;;;;;;;;;6240947;28;20359;-59
2023/03/09 08:23:09;;;;;;;7.43;3.90;;;;;;;;;;6239868;28;20199;-59
2023/03/09 08:26:11;;;;;;;5.90;4.60;;;;;;;;;;6218534;28;20197;-59
2023/03/09 08:29:13;;;;;;;6.73;3.47;;;;;;;;;;6233384;28;20209;-61
2023/03/09 08:32:14;;;;;;;7.90;4.17;;;;;;;;;;6222567;28;20193;-59
2023/03/09 08:35:16;;;;;;;5.77;3.80;;;;;;;;;;6232273;28;20236;-59
2023/03/09 08:38:17;;;;;;;4.70;4.07;;;;;;;;;;6219022;28;20261;-60
2023/03/09 08:41:18;;;;;;;6.90;3.93;;;;;;;;;;6223602;28;20191;-60
2023/03/09 08:44:19;;;;;;;4.47;4.00;;;;;;;;;;6222562;28;20194;-59
2023/03/09 08:47:20;;;;;;;5.40;3.83;;;;;;;;;;6245141;28;20193;-60
2023/03/09 08:50:21;;;;;;;5.43;3.83;;;;;;;;;;6241015;28;20198;-60
2023/03/09 08:53:22;;;;;;;3.70;2.67;;;;;;;;;;6228204;28;20727;-60
2023/03/09 08:56:23;;;;;;;3.20;2.77;;;;;;;;;;6244444;28;20225;-59
2023/03/09 08:59:24;;;;;;;3.17;2.50;;;;;;;;;;6221789;28;20200;-58
2023/03/09 09:02:26;;;;;;;3.23;2.40;;;;;;;;;;6225060;28;20197;-60
2023/03/09 09:05:27;;;;;;;4.77;2.53;;;;;;;;;;6229321;28;20206;-60
2023/03/09 09:08:28;;;;;;;3.13;2.00;;;;;;;;;;6236619;28;20226;-60
2023/03/09 09:11:29;;;;;;;2.83;2.13;;;;;;;;;;6228811;28;20209;-59
2023/03/09 09:14:30;;;;;;;4.23;2.37;;;;;;;;;;6226418;28;20198;-59
2023/03/09 09:17:31;;;;;;;4.10;2.47;;;;;;;;;;6245373;28;20226;-59
2023/03/09 09:20:33;;;;;;;3.43;1.90;;;;;;;;;;6242369;28;20190;-58
2023/03/09 09:23:35;;;;;;;3.43;2.10;;;;;;;;;;6229014;28;20194;-58
2023/03/09 09:26:36;;;;;;;2.90;2.07;;;;;;;;;;6236158;28;20195;-59
2023/03/09 09:29:37;;;;;;;2.33;2.00;;;;;;;;;;6246656;28;20289;-58
2023/03/09 09:32:40;;;;;;;4.27;2.47;;;;;;;;;;6244280;28;20198;-58
2023/03/09 09:35:41;;;;;;;2.33;2.13;;;;;;;;;;6221417;28;20262;-58
2023/03/09 09:38:42;;;;;;;2.63;2.33;;;;;;;;;;6225674;28;20210;-58
2023/03/09 09:41:47;;;;;;;5.47;2.10;;;;;;;;;;6235299;28;20210;-58
2023/03/09 09:44:49;;;;;;;2.07;1.83;;;;;;;;;;6242423;28;20213;-58
2023/03/09 09:47:51;;;;;;;3.00;2.37;;;;;;;;;;6245039;28;20228;-58
2023/03/09 09:50:52;;;;;;;2.93;2.20;;;;;;;;;;6239383;28;20196;-58
2023/03/09 09:54:05;;;;;;;2.47;1.80;;;;;;;;;;6239912;28;20280;-58
2023/03/09 09:57:14;;;;;;;1.87;1.67;;;;;;;;;;6240013;28;20215;-58
2023/03/09 10:00:24;;;;;;;2.53;2.20;;;;;;;;;;6247132;28;20621;-58
2023/03/09 10:03:25;;;;;;;2.00;1.80;;;;;;;;;;6248300;28;20191;-58
2023/03/09 10:06:27;;;;;;;2.13;1.57;;;;;;;;;;6246510;28;20195;-58
2023/03/09 10:09:31;;;;;;;2.90;2.20;;;;;;;;;;6242496;28;20190;-58
2023/03/09 10:12:32;;;;;;;3.43;2.20;;;;;;;;;;6248997;28;20194;-59
2023/03/09 10:15:34;;;;;;;2.10;1.87;;;;;;;;;;6220953;28;20245;-59
2023/03/09 10:18:40;;;;;;;3.30;2.10;;;;;;;;;;6240874;28;20214;-60
2023/03/09 10:21:46;;;;;;;3.27;2.17;;;;;;;;;;6249333;28;20281;-59
2023/03/09 10:24:50;;;;;;;5.20;2.00;;;;;;;;;;6262939;28;20210;-59
2023/03/09 10:27:56;;;;;;;3.07;1.90;;;;;;;;;;6249288;28;20199;-59
2023/03/09 10:31:02;;;;;;;2.97;1.83;;;;;;;;;;6242103;28;20195;-59
2023/03/09 10:34:09;;;;;;;1.60;1.50;;;;;;;;;;6238260;28;20195;-58
2023/03/09 10:37:17;;;;;;;2.27;1.60;;;;;;;;;;6246368;28;20201;-59
2023/03/09 10:40:23;;;;;;;2.80;1.60;;;;;;;;;;6244506;28;20179;-59
2023/03/09 10:43:27;;;;;;;2.30;1.57;;;;;;;;;;6247803;28;20187;-59
2023/03/09 10:46:28;;;;;;;2.67;1.20;;;;;;;;;;6248279;28;20212;-59
2023/03/09 10:49:29;;;;;;;1.30;1.03;;;;;;;;;;6223965;28;20195;-59
2023/03/09 10:52:30;;;;;;;1.13;1.00;;;;;;;;;;6230560;28;20324;-58
2023/03/09 10:55:41;;;;;;;1.27;1.03;;;;;;;;;;6223818;28;20203;-59
2023/03/09 10:58:43;;;;;;;1.33;1.00;;;;;;;;;;6240116;28;20215;-59
2023/03/09 11:01:45;;;;;;;2.17;0.93;;;;;;;;;;6241611;28;20188;-59
2023/03/09 11:04:46;;;;;;;1.10;0.77;;;;;;;;;;6233179;28;20566;-59
2023/03/09 11:07:52;;;;;;;0.83;0.70;;;;;;;;;;6219319;28;20190;-59
2023/03/09 11:11:05;;;;;;;1.03;0.90;;;;;;;;;;6225770;28;20189;-59
2023/03/09 11:14:19;;;;;;;1.00;0.70;;;;;;;;;;6228214;28;20199;-59
2023/03/09 11:17:26;;;;;;;0.97;0.73;;;;;;;;;;6236728;28;20203;-60
2023/03/09 11:20:35;;;;;;;0.60;0.60;;;;;;;;;;6235780;28;20188;-58
2023/03/09 11:23:46;;;;;;;2.67;0.97;;;;;;;;;;6244558;28;20196;-58
2023/03/09 11:26:51;;;;;;;1.43;0.93;;;;;;;;;;6239918;28;20194;-58
2023/03/09 11:29:57;;;;;;;1.10;0.73;;;;;;;;;;6239635;28;20295;-58
2023/03/09 11:32:58;;;;;;;0.63;0.50;;;;;;;;;;6235622;28;20241;-58
2023/03/09 11:36:00;;;;;;;1.37;1.03;;;;;;;;;;6238820;28;20234;-58
2023/03/09 11:39:05;;;;;;;1.93;0.77;;;;;;;;;;6220057;28;20213;-58
2023/03/09 11:42:11;;;;;;;1.83;0.67;;;;;;;;;;6234373;28;20240;-58
2023/03/09 11:45:17;;;;;;;2.03;0.70;;;;;;;;;;6240822;28;20176;-58
2023/03/09 11:48:21;;;;;;;2.33;0.83;;;;;;;;;;6242493;28;20183;-59
2023/03/09 11:51:25;;;;;;;1.07;0.83;;;;;;;;;;6245696;28;20187;-59
2023/03/09 11:54:32;;;;;;;0.63;0.63;;;;;;;;;;6239034;28;20225;-60
2023/03/09 11:57:34;;;;;;;1.37;0.90;;;;;;;;;;6250116;28;20457;-59
2023/03/09 12:00:37;;;;;;;0.60;0.57;;;;;;;;;;6239169;28;20244;-61
2023/03/09 12:03:47;;;;;;;3.00;0.90;;;;;;;;;;6246568;28;20245;-64
2023/03/09 12:06:51;;;;;;;1.00;0.90;;;;;;;;;;6242020;28;20217;-67
2023/03/09 12:10:10;;;;;;;2.93;0.83;;;;;;;;;;6241375;28;20198;-67
2023/03/09 12:13:18;;;;;;;1.00;0.77;;;;;;;;;;6245174;28;20274;-69
2023/03/09 12:16:31;;;;;;;1.00;0.70;;;;;;;;;;6235937;28;20188;-65
2023/03/09 12:19:33;;;;;;;2.93;0.70;;;;;;;;;;6240854;28;20194;-67
2023/03/09 12:22:38;;;;;;;1.30;0.80;;;;;;;;;;6228895;28;20195;-67
2023/03/09 12:25:55;;;;;;;1.50;0.63;;;;;;;;;;6248527;28;20191;-67
2023/03/09 12:29:00;;;;;;;1.27;0.97;;;;;;;;;;6231862;28;20192;-66
2023/03/09 12:32:32;;;;;;;0.70;0.60;;;;;;;;;;6235231;28;20275;-67
2023/03/09 12:35:39;;;;;;;1.97;0.80;;;;;;;;;;6236354;28;20246;-66
2023/03/09 12:38:41;;;;;;;1.63;0.43;;;;;;;;;;6236398;28;20222;-64
2023/03/09 12:42:02;;;;;;;1.20;0.80;;;;;;;;;;6230535;28;20199;-63
2023/03/09 12:45:22;;;;;;;1.00;0.50;;;;;;;;;;6261936;28;20197;-64
2023/03/09 12:48:25;;;;;;;1.27;0.80;;;;;;;;;;6246942;28;20194;-65
2023/03/09 12:51:31;;;;;;;1.67;0.57;;;;;;;;;;6242424;28;20195;-64
2023/03/09 12:54:32;;;;;;;1.17;0.67;;;;;;;;;;6239712;28;20199;-66
2023/03/09 12:57:33;;;;;;;2.87;0.70;;;;;;;;;;6229184;28;20214;-66
2023/03/09 13:00:36;;;;;;;0.40;0.40;;;;;;;;;;6231600;28;20240;-66
2023/03/09 13:03:48;;;;;;;2.10;0.80;;;;;;;;;;6241464;28;20197;-66
2023/03/09 13:07:00;;;;;;;1.83;0.93;;;;;;;;;;6244799;28;20192;-66
2023/03/09 13:10:01;;;;;;;1.87;0.60;;;;;;;;;;6239387;28;20249;-66
2023/03/09 13:13:22;;;;;;;1.47;0.73;;;;;;;;;;6229459;28;20197;-65
2023/03/09 13:16:32;;;;;;;2.13;0.90;;;;;;;;;;6234255;28;20179;-65
2023/03/09 13:19:36;;;;;;;1.73;0.60;;;;;;;;;;6242739;28;20213;-65
2023/03/09 13:22:38;;;;;;;1.27;0.63;;;;;;;;;;6245786;28;20281;-65
2023/03/09 13:25:49;;;;;;;0.97;0.77;;;;;;;;;;6246525;28;20195;-66
2023/03/09 13:28:51;;;;;;;1.80;0.83;;;;;;;;;;6244967;28;20195;-66
2023/03/09 13:31:53;;;;;;;0.97;0.77;;;;;;;;;;6230396;28;20217;-65
2023/03/09 13:34:54;;;;;;;1.07;0.80;;;;;;;;;;6233631;28;20254;-66
2023/03/09 13:37:56;;;;;;;2.47;0.80;;;;;;;;;;6242997;28;20212;-66
2023/03/09 13:40:59;;;;;;;3.50;0.93;;;;;;;;;;6240738;28;20268;-66
2023/03/09 13:44:00;;;;;;;0.80;0.60;;;;;;;;;;6233802;28;20266;-66
2023/03/09 13:47:03;;;;;;;2.13;0.80;;;;;;;;;;6247854;28;20333;-67
2023/03/09 13:50:05;;;;;;;0.63;0.50;;;;;;;;;;6250025;28;20203;-66
2023/03/09 13:53:15;;;;;;;0.63;0.60;;;;;;;;;;6238720;28;20198;-66
2023/03/09 13:56:17;;;;;;;2.07;0.73;;;;;;;;;;6240199;28;20199;-66
2023/03/09 13:59:18;;;;;;;0.63;0.60;;;;;;;;;;6234060;28;20196;-67
2023/03/09 14:02:20;;;;;;;1.07;0.70;;;;;;;;;;6249432;28;20210;-67
2023/03/09 14:05:23;;;;;;;0.93;0.70;;;;;;;;;;6249176;28;20265;-66
2023/03/09 14:08:24;;;;;;;2.07;0.67;;;;;;;;;;6243740;28;20244;-66
2023/03/09 14:11:27;;;;;;;1.30;0.57;;;;;;;;;;6231651;28;20191;-66
2023/03/09 14:14:29;;;;;;;0.63;0.43;;;;;;;;;;6229840;28;20196;-66
2023/03/09 14:17:30;;;;;;;0.80;0.50;;;;;;;;;;6249487;28;20273;-66
2023/03/09 14:20:35;;;;;;;1.37;0.60;;;;;;;;;;6247899;28;20194;-66
2023/03/09 14:23:41;;;;;;;0.63;0.40;;;;;;;;;;6249370;28;20178;-66
2023/03/09 14:26:42;;;;;;;2.17;0.63;;;;;;;;;;6241430;28;20191;-66
2023/03/09 14:29:43;;;;;;;1.27;0.70;;;;;;;;;;6238057;28;20240;-66
2023/03/09 14:33:04;;;;;;;2.10;0.70;;;;;;;;;;6222586;28;20281;-64
2023/03/09 14:36:16;;;;;;;1.43;0.60;;;;;;;;;;6233407;28;20321;-65
2023/03/09 14:39:43;;;;;;;0.90;0.60;;;;;;;;;;6248740;28;20215;-65
2023/03/09 14:42:44;;;;;;;1.77;0.40;;;;;;;;;;6239572;28;20183;-61
2023/03/09 14:45:45;;;;;;;1.00;0.53;;;;;;;;;;6233120;28;20198;-61
2023/03/09 14:48:51;;;;;;;3.27;0.80;;;;;;;;;;6231599;28;20197;-62
2023/03/09 14:51:52;;;;;;;0.77;0.53;;;;;;;;;;6249852;28;20193;-62
2023/03/09 14:54:53;;;;;;;1.30;0.67;;;;;;;;;;6227804;28;20253;-62
2023/03/09 14:57:54;;;;;;;1.07;0.50;;;;;;;;;;6230525;28;20221;-66
2023/03/09 15:00:55;;;;;;;0.57;0.50;;;;;;;;;;6232132;28;20244;-66
2023/03/09 15:03:58;;;;;;;1.07;0.43;;;;;;;;;;6229177;28;20187;-66
2023/03/09 15:07:00;;;;;;;0.70;0.70;;;;;;;;;;6249088;28;20222;-66
2023/03/09 15:10:01;;;;;;;1.43;0.63;;;;;;;;;;6243305;28;20191;-66
2023/03/09 15:13:02;;;;;;;2.63;1.00;;;23.40;24.60;;;;;;6246698;28;20187;-66
2023/03/09 15:16:03;;;;;;;0.90;0.60;;;23.60;24.40;;;;;;6241815;28;20190;-63
2023/03/09 15:19:04;;;;;;;2.60;0.83;;;25.00;22.80;;;;;;6231069;28;20211;-63
2023/03/09 15:22:05;;;;;;;3.07;0.70;;;25.70;22.80;;;;;;6222667;28;20202;-63
2023/03/09 15:25:08;;;;;;;2.10;0.90;;;26.30;22.00;;;;;;6240608;28;20187;-64
2023/03/09 15:28:09;;;;;;;1.27;0.93;;;26.40;21.40;;;;;;6241440;28;20195;-64
2023/03/09 15:31:13;;;;;;;0.97;0.70;;;25.60;22.50;;;;;;6219706;28;20206;-64
2023/03/09 15:34:14;;;;;;;1.07;0.60;;;25.00;22.70;;;;;;6214078;28;20268;-63
2023/03/09 15:37:15;;;;;;;1.40;0.80;;;25.40;23.30;;;;;;6209334;28;20220;-62
2023/03/09 15:40:16;;;;;;;2.13;0.70;;;25.30;22.50;;;;;;6225083;28;20190;-62
2023/03/09 15:43:17;;;;;;;1.00;0.40;;;25.00;22.80;;;;;;6246587;28;20190;-62
2023/03/09 15:46:19;;;;;;;0.53;0.50;;;;;;;;;;6211559;28;20257;-62
2023/03/09 15:49:21;;;;;;;0.53;0.50;;;;;;;;;;6223130;28;20218;-62
2023/03/09 15:52:21;;;;;;;2.90;0.50;;;24.70;23.00;;;;;;6226647;28;20198;-62
2023/03/09 15:55:22;;;;;;;1.07;0.90;;;22.50;25.50;;;;;;6224295;28;20194;-63
2023/03/09 15:58:24;;;;;;;0.60;0.60;;;23.00;24.90;;;;;;6235284;28;20216;-63
2023/03/09 16:01:25;;;;;;;0.93;0.50;;;23.20;25.50;;;;;;6221691;28;20191;-63
2023/03/09 16:04:26;;;;;;;1.67;0.50;;;23.50;24.50;;;;;;6228347;28;20329;-63
2023/03/09 16:07:27;;;;;;;0.60;0.40;;;23.50;24.10;;;;;;6229378;28;20206;-63
2023/03/09 16:10:28;;;;;;;2.13;0.57;;;;;;;;;;6228449;28;20209;-63
2023/03/09 16:13:29;;;;;;;1.10;0.60;;;;;;;;;;6245248;28;20228;-63
2023/03/09 16:16:30;;;;;;;1.33;0.50;;;;;;;;;;6223935;28;20205;-63
2023/03/09 16:19:31;;;;;;;0.50;0.30;;;;;;;;;;6237730;28;20186;-63
2023/03/09 16:22:34;;;;;;;1.97;0.60;;;;;;;;;;6245531;28;20213;-63
2023/03/09 16:25:35;;;;;;;0.97;0.60;;;;;;;;;;6245861;28;20311;-63
2023/03/09 16:28:36;;;;;;;0.53;0.50;;;;;;;;;;6240917;28;20241;-63
2023/03/09 16:31:37;;;;;;;0.90;0.60;;;;;;;;;;6230201;28;20229;-63
2023/03/09 16:34:38;;;;;;;2.77;0.80;;;;;;;;;;6245796;28;20291;-63
2023/03/09 16:37:40;;;;;;;1.03;0.70;;;;;;;;;;6229555;28;20214;-63
2023/03/09 16:40:41;;;;;;;2.03;0.80;;;;;;;;;;6227922;28;20240;-63
2023/03/09 16:43:43;;;;;;;2.97;0.80;;;;;;;;;;6224187;28;20190;-63
2023/03/09 16:46:44;;;;;;;2.13;0.70;;;;;;;;;;6242665;28;20193;-63
2023/03/09 16:49:45;;;;;;;0.50;0.50;;;;;;;;;;6227953;28;20201;-63
2023/03/09 16:52:46;;;;;;;1.07;0.80;;;;;;;;;;6226857;28;20211;-64
2023/03/09 16:55:55;;;;;;;0.83;0.63;;;;;;;;;;6222699;28;20209;-63
2023/03/09 16:58:56;;;;;;;2.27;0.90;;;;;;;;;;6238099;28;20222;-63
2023/03/09 17:01:57;;;;;;;5.60;0.80;;;;;;;;;;6239368;28;20277;-63
2023/03/09 17:04:58;;;;;;;5.50;1.03;;;;;;;;;;6230240;28;20187;-63
2023/03/09 17:07:59;;;;;;;2.20;0.60;;;;;;;;;;6221078;28;20206;-65
2023/03/09 17:11:01;;;;;;;2.03;0.90;;;;;;;;;;6227041;28;20241;-65
2023/03/09 17:14:02;;;;;;;1.87;1.10;;;;;;;;;;6241518;28;20199;-66
2023/03/09 17:17:04;;;;;;;1.50;1.13;;;;;;;;;;6220974;28;20224;-66
2023/03/09 17:20:06;;;;;;;1.47;0.80;;;;;;;;;;6244611;28;20206;-65
2023/03/09 17:23:07;;;;;;;2.00;1.47;;;;;;;;;;6242094;28;20203;-66
2023/03/09 17:26:09;;;;;;;2.30;1.10;;;;;;;;;;6228789;28;20192;-65
2023/03/09 17:29:13;;;;;;;3.40;1.40;;;;;;;;;;6230191;28;20183;-65
2023/03/09 17:32:14;;;;;;;3.20;1.50;;;;;;;;;;6241467;28;20190;-66
2023/03/09 17:35:15;;;;;;;1.50;1.40;;;;;;;;;;6229052;28;20241;-65
2023/03/09 17:38:17;;;;;;;2.83;1.63;;;;;;;;;;6242939;28;20241;-65
2023/03/09 17:41:18;;;;;;;2.60;1.90;;;;;;;;;;6228598;28;20290;-66
2023/03/09 17:44:19;;;;;;;2.30;2.03;;;;;;;;;;6246790;28;20268;-65
2023/03/09 17:47:20;;;;;;;2.90;1.97;;;;;;;;;;6227477;28;20201;-66
2023/03/09 17:50:22;;;;;;;2.13;1.63;;;;;;;;;;6246047;28;20191;-66
2023/03/09 17:53:23;;;;;;;5.23;2.30;;;;;;;;;;6241444;28;20240;-67
2023/03/09 17:56:24;;;;;;;2.33;1.40;;;;;;;;;;6238828;28;20190;-68
2023/03/09 17:59:25;;;;;;;2.20;2.00;;;;;;;;;;6246024;28;20241;-68
2023/03/09 18:02:27;;;;;;;4.60;1.50;;;;;;;;;;6238343;28;20195;-67
2023/03/09 18:05:29;;;;;;;2.60;1.80;;;;;;;;;;6220813;28;20191;-67